Meishomaru — JD3044 — position and weather

sailwx.info

Track history (hours):
 
Tides and Currents Weather Stations Pressure Air Temp Water Temp Dewpoint Dewpoint Depression Visibility Wind Speed Wind Dir Waves Ship Positions

Meishomaru

Last reported at 2015-Aug-05 07:32 UTC. Time now 2015-Aug-05 08:29 UTC.
Position N 35°29' E 139°55'.

Length 68 m; draft 2.6 m.

Type: Tanker. MMSI: 431001216.

Date/timePositionNaut miles runAvg speedWind from/ knotsBaromVisibWave heightAir tempDewpointWater temp
2015-Aug-05 07:32N 35°29' E 139°55'0 0.0
2015-Aug-05 06:29N 35°29' E 139°55'0 0.0
2015-Aug-05 05:32N 35°29' E 139°55'0 0.0
2015-Aug-05 04:32N 35°29' E 139°55'0 0.0
2015-Aug-05 03:32N 35°29' E 139°55'0 0.0
2015-Aug-05 02:32N 35°29' E 139°55'0 0.0
2015-Aug-05 01:29N 35°29' E 139°55'0 0.1
2015-Aug-05 00:32N 35°29' E 139°55'0 0.0
2015-Aug-04 23:32N 35°29' E 139°55'0 0.0
2015-Aug-04 22:29N 35°29' E 139°55'0 0.0
2015-Aug-04 21:29N 35°29' E 139°55'0 0.0
2015-Aug-04 20:32N 35°29' E 139°55'0 0.0
2015-Aug-04 19:32N 35°29' E 139°55'0 0.0
2015-Aug-04 18:32N 35°29' E 139°55'0 0.0
2015-Aug-04 17:32N 35°29' E 139°55'0 0.0
2015-Aug-04 16:32N 35°29' E 139°55'9 9.4
2015-Aug-04 15:33N 35°24' E 139°46'1110.9
2015-Aug-04 14:33N 35°13' E 139°47'1312.9
2015-Aug-04 13:33N 35°00' E 139°44'16 8.1
2015-Aug-04 11:33N 34°56' E 140°04'2812.3
2015-Aug-04 09:15N 35°14' E 140°31'1411.3
2015-Aug-04 08:03N 35°25' E 140°41'611.5
2015-Aug-04 07:33N 35°29' E 140°45'1211.6
2015-Aug-04 06:30N 35°39' E 140°54'2010.3
2015-Aug-04 04:31N 35°58' E 140°43'5 1.0
2015-Aug-04 00:12N 35°53' E 140°41'3 4.5
2015-Aug-03 23:32N 35°56' E 140°42'1 0.5
2015-Aug-03 21:33N 35°57' E 140°42'8 8.3
2015-Aug-03 20:33N 35°51' E 140°50'1211.4
2015-Aug-03 19:32N 35°40' E 140°55'5112.0
2015-Aug-03 15:17N 35°02' E 140°14'912.1
2015-Aug-03 14:32N 34°57' E 140°05'1610.9
2015-Aug-03 13:06N 34°54' E 139°46'713.2
2015-Aug-03 12:33N 35°01' E 139°43'1111.5
2015-Aug-03 11:33N 35°12' E 139°46'1211.7
2015-Aug-03 10:33N 35°23' E 139°42'1211.7
2015-Aug-03 09:33N 35°31' E 139°53'8 8.3
2015-Aug-03 08:33N 35°32' E 140°03'0 0.0
2015-Aug-03 07:33N 35°32' E 140°03'0 0.0
2015-Aug-03 06:33N 35°32' E 140°03'0 0.0
2015-Aug-03 05:33N 35°32' E 140°03'0 0.0
2015-Aug-03 04:27N 35°32' E 140°03'0 0.0
2015-Aug-03 03:33N 35°32' E 140°03'8 8.4
2015-Aug-03 02:33N 35°32' E 139°53'6 5.9
2015-Aug-03 01:33N 35°31' E 139°46'0 0.0
2015-Aug-03 00:32N 35°31' E 139°46'0 0.0
2015-Aug-02 23:32N 35°31' E 139°46'0 0.0
2015-Aug-02 22:14N 35°31' E 139°46'1 1.9
2015-Aug-02 21:33N 35°30' E 139°47'2 1.7
2015-Aug-02 20:32N 35°29' E 139°49'0 0.0
2015-Aug-02 19:32N 35°29' E 139°49'0 0.0
2015-Aug-02 18:29N 35°29' E 139°49'0 0.1
2015-Aug-02 17:32N 35°29' E 139°49'0 0.0
2015-Aug-02 16:32N 35°29' E 139°49'0 0.0
2015-Aug-02 15:32N 35°29' E 139°49'0 0.1
2015-Aug-02 14:32N 35°29' E 139°49'0 0.0
2015-Aug-02 13:26N 35°29' E 139°49'0 0.1
2015-Aug-02 12:32N 35°29' E 139°49'0 0.0
2015-Aug-02 11:32N 35°29' E 139°49'0 0.0
2015-Aug-02 10:32N 35°29' E 139°49'0 0.0
2015-Aug-02 09:32N 35°29' E 139°49'0 0.0
2015-Aug-02 08:32N 35°29' E 139°49'0 0.0
2015-Aug-02 07:32N 35°29' E 139°49'0 0.0
2015-Aug-02 06:32N 35°29' E 139°49'5 5.6
2015-Aug-02 05:33N 35°24' E 139°46'1212.4
2015-Aug-02 04:33N 35°12' E 139°47'1212.0
2015-Aug-02 03:34N 35°02' E 139°39'23611.1
2015-Aug-01 06:21N 34°02' E 135°03'7 0.7
2015-Jul-31 20:29N 34°07' E 135°08'0 0.0
2015-Jul-31 15:16N 34°07' E 135°08'810.6
2015-Jul-31 14:33N 34°13' E 135°01'  
2015-Jul-28 09:19N 34°08' E 135°00'6 0.5
2015-Jul-27 21:17N 34°08' E 135°07'1011.5
2015-Jul-27 20:25N 34°08' E 134°55'  
Track history (hours):
 
Tides and Currents Weather Stations Pressure Air Temp Water Temp Dewpoint Dewpoint Depression Visibility Wind Speed Wind Dir Waves Ship Positions

Meishomaru

Last reported at 2015-Aug-05 07:32 UTC. Time now 2015-Aug-05 08:29 UTC.
Position N 35°29' E 139°55'.

Length 68 m; draft 2.6 m.

Type: Tanker. MMSI: 431001216.

Date/timePositionNaut miles runAvg speedWind from/ knotsBaromVisibWave heightAir tempDewpointWater temp
2015-Aug-05 07:32N 35°29' E 139°55'0 0.0
2015-Aug-05 06:29N 35°29' E 139°55'0 0.0
2015-Aug-05 05:32N 35°29' E 139°55'0 0.0
2015-Aug-05 04:32N 35°29' E 139°55'0 0.0
2015-Aug-05 03:32N 35°29' E 139°55'0 0.0
2015-Aug-05 02:32N 35°29' E 139°55'0 0.0
2015-Aug-05 01:29N 35°29' E 139°55'0 0.1
2015-Aug-05 00:32N 35°29' E 139°55'0 0.0
2015-Aug-04 23:32N 35°29' E 139°55'0 0.0
2015-Aug-04 22:29N 35°29' E 139°55'0 0.0
2015-Aug-04 21:29N 35°29' E 139°55'0 0.0
2015-Aug-04 20:32N 35°29' E 139°55'0 0.0
2015-Aug-04 19:32N 35°29' E 139°55'0 0.0
2015-Aug-04 18:32N 35°29' E 139°55'0 0.0
2015-Aug-04 17:32N 35°29' E 139°55'0 0.0
2015-Aug-04 16:32N 35°29' E 139°55'9 9.4
2015-Aug-04 15:33N 35°24' E 139°46'1110.9
2015-Aug-04 14:33N 35°13' E 139°47'1312.9
2015-Aug-04 13:33N 35°00' E 139°44'16 8.1
2015-Aug-04 11:33N 34°56' E 140°04'2812.3
2015-Aug-04 09:15N 35°14' E 140°31'1411.3
2015-Aug-04 08:03N 35°25' E 140°41'611.5
2015-Aug-04 07:33N 35°29' E 140°45'1211.6
2015-Aug-04 06:30N 35°39' E 140°54'2010.3
2015-Aug-04 04:31N 35°58' E 140°43'5 1.0
2015-Aug-04 00:12N 35°53' E 140°41'3 4.5
2015-Aug-03 23:32N 35°56' E 140°42'1 0.5
2015-Aug-03 21:33N 35°57' E 140°42'8 8.3
2015-Aug-03 20:33N 35°51' E 140°50'1211.4
2015-Aug-03 19:32N 35°40' E 140°55'5112.0
2015-Aug-03 15:17N 35°02' E 140°14'912.1
2015-Aug-03 14:32N 34°57' E 140°05'1610.9
2015-Aug-03 13:06N 34°54' E 139°46'713.2
2015-Aug-03 12:33N 35°01' E 139°43'1111.5
2015-Aug-03 11:33N 35°12' E 139°46'1211.7
2015-Aug-03 10:33N 35°23' E 139°42'1211.7
2015-Aug-03 09:33N 35°31' E 139°53'8 8.3
2015-Aug-03 08:33N 35°32' E 140°03'0 0.0
2015-Aug-03 07:33N 35°32' E 140°03'0 0.0
2015-Aug-03 06:33N 35°32' E 140°03'0 0.0
2015-Aug-03 05:33N 35°32' E 140°03'0 0.0
2015-Aug-03 04:27N 35°32' E 140°03'0 0.0
2015-Aug-03 03:33N 35°32' E 140°03'8 8.4
2015-Aug-03 02:33N 35°32' E 139°53'6 5.9
2015-Aug-03 01:33N 35°31' E 139°46'0 0.0
2015-Aug-03 00:32N 35°31' E 139°46'0 0.0
2015-Aug-02 23:32N 35°31' E 139°46'0 0.0
2015-Aug-02 22:14N 35°31' E 139°46'1 1.9
2015-Aug-02 21:33N 35°30' E 139°47'2 1.7
2015-Aug-02 20:32N 35°29' E 139°49'0 0.0
2015-Aug-02 19:32N 35°29' E 139°49'0 0.0
2015-Aug-02 18:29N 35°29' E 139°49'0 0.1
2015-Aug-02 17:32N 35°29' E 139°49'0 0.0
2015-Aug-02 16:32N 35°29' E 139°49'0 0.0
2015-Aug-02 15:32N 35°29' E 139°49'0 0.1
2015-Aug-02 14:32N 35°29' E 139°49'0 0.0
2015-Aug-02 13:26N 35°29' E 139°49'0 0.1
2015-Aug-02 12:32N 35°29' E 139°49'0 0.0
2015-Aug-02 11:32N 35°29' E 139°49'0 0.0
2015-Aug-02 10:32N 35°29' E 139°49'0 0.0
2015-Aug-02 09:32N 35°29' E 139°49'0 0.0
2015-Aug-02 08:32N 35°29' E 139°49'0 0.0
2015-Aug-02 07:32N 35°29' E 139°49'0 0.0
2015-Aug-02 06:32N 35°29' E 139°49'5 5.6
2015-Aug-02 05:33N 35°24' E 139°46'1212.4
2015-Aug-02 04:33N 35°12' E 139°47'1212.0
2015-Aug-02 03:34N 35°02' E 139°39'23611.1
2015-Aug-01 06:21N 34°02' E 135°03'7 0.7
2015-Jul-31 20:29N 34°07' E 135°08'0 0.0
2015-Jul-31 15:16N 34°07' E 135°08'810.6
2015-Jul-31 14:33N 34°13' E 135°01'  
2015-Jul-28 09:19N 34°08' E 135°00'6 0.5
2015-Jul-27 21:17N 34°08' E 135°07'1011.5
2015-Jul-27 20:25N 34°08' E 134°55'  

Dump ship's entire track history